AirNav   Air Wisconsin pilot careers
 
 841 users online  

32FD Star Aviation Heliport
Riverview, Florida, USA

GOING TO RIVERVIEW?


FAA INFORMATION EFFECTIVE 29 MARCH 2018

Location

FAA Identifier: 32FD
Lat/Long: 27-54-16.0000N / 082-23-00.0000W
27-54.266667N / 082-23.000000W
27.9044444 / -82.3833333
(estimated)
Elevation: 13 ft. / 4 m (estimated)
From city: 5 miles SE of RIVERVIEW, FL
Time zone: UTC -4 (UTC -5 during Standard Time)
Zip code: 33578

Heliport Operations

Heliport use: Private use. Permission required prior to landing
Activation date: 06/2006
Control tower: no
ARTCC: MIAMI CENTER
FSS: SAINT PETERSBURG FLIGHT SERVICE STATION
Attendance: 0800-1700
Wind indicator: yes
Segmented circle: no

Heliport Communications

WX AWOS-3 at TPF (4 nm W): 118.925 (813-251-6824)
WX AWOS-3 at VDF (7 nm N): 121.125 (813-630-0924)
WX ASOS at TPA (9 nm NW): PHONE 813-873-7228
WX AWOS-3 at PCM (13 nm NE): 120.025 (813-764-8259)
WX ASOS at SPG (15 nm SW): 118.875 (727-821-4334)
WX ASOS at PIE (16 nm W): PHONE 727-531-3456
WX AWOS-3PT at LAL (20 nm E): 118.025 (863-834-2030)

Nearby radio navigation aids

VOR radial/distance  VOR name  Freq  Var
PIEr096/16.0ST PETERSBURG VORTAC116.4005W
LALr255/20.2LAKELAND VORTAC116.0001E
SRQr023/31.3SARASOTA VOR/DME117.0005W

 
NDB name  Hdg/Dist  Freq  Var  ID
COSME150/13.236805WTP - .--.

Heliport Services

Runway Information

Helipad H1

Dimensions: 50 x 50 ft. / 15 x 15 m
Surface: concrete
Traffic pattern: leftleft

Heliport Ownership and Management from official FAA records

Ownership: Privately-owned
Owner: STAR AVIATION
9625 WES KEARNEY WAY
RIVERVIEW, FL 33578
Phone (813) 421-8021
Manager: BING KEARNEY
9625 WES KEARNEY WAY
RIVERVIEW, FL 33578
Phone 813-379-3830
ADDITIONAL CONTACT ROSIE APPELBE MOORE - 813-335-8414

Heliport Operational Statistics

Aircraft based on the field: 2
Helicopters: 2
    

Additional Remarks

70 FT PLINE 300 FT N OF PAD RUNS E AND W. 50 FT PLINE W OF PAD RUNS N AND S.

Instrument Procedures

There are no published instrument procedures at 32FD.

Some nearby airports with instrument procedures:

KTPF - Peter O Knight Airport (4 nm W)
KVDF - Tampa Executive Airport (7 nm N)
KMCF - MacDill Air Force Base (8 nm SW)
KTPA - Tampa International Airport (9 nm NW)
KPCM - Plant City Airport (13 nm NE)
KSPG - Albert Whitted Airport (15 nm SW)
KPIE - St Pete-Clearwater International Airport (16 nm W)
KLAL - Lakeland Linder Regional Airport (20 nm E)
 
Loc | Ops | Rwys | IFR | FBO | Links
Com | Nav | Svcs | Stats | Notes


 
Area around 32FD (Star Aviation Heliport)
 
Road maps at: MapQuest Bing Google
 
Aerial photo
No photo
 
Sectional chart

 
Airport distance calculator
Flying to Star Aviation Heliport? Find the distance to fly.

From to 32FD

Sunrise and sunset
Times for 21-Apr-2018
 Local
(UTC-4)
 Zulu
(UTC)
Morning civil twilight06:3510:35
Sunrise07:0011:00
Sunset19:5723:57
Evening civil twilight20:2100:21

Current date and time
Zulu (UTC)  22-Apr-2018 02:15:05
Local (UTC-4)  21-Apr-2018 22:15:05
 
METAR
KTPF 
4nm W 
220155Z AUTO 10011G15KT 10SM SCT060 BKN100 OVC120 22/21 A3014 RMK AO2
KVDF 
7nm N 
220155Z AUTO 08007KT 10SM OVC025 23/19 A3014 RMK AO2
KMCF 
8nm SW 
220156Z AUTO 13012G21KT 10SM FEW027 SCT070 24/20 A3013 RMK AO2 RAB11E21 SLP206 P0000 T02420195 FZRANO $
KTPA 
9nm NW 
220153Z 10007KT 070V130 10SM FEW040 24/19 A3014 RMK AO2 LTG DSNT N SLP205 T02440194
KPCM 
13nm NE 
220155Z AUTO 08010G14KT 10SM OVC022 24/19 A3017 RMK AO2
KSPG 
16nm SW 
220153Z AUTO 13013KT 10SM BKN060 OVC075 25/21 A3012 RMK AO2 RAE06 SLP198 P0000 T02500206
KPIE 
16nm W 
220153Z 10013KT 10SM BKN034 24/21 A3013 RMK AO2 SLP201 T02390206
KLAL 
20nm E 
220156Z 10010G15KT 10SM BKN020 23/19 A3016
TAF
KMCF 
8nm SW 
220000Z 2200/2306 10006KT 9999 OVC020 QNH3005INS TEMPO 2200/2201 4800 -TSRA OVC015CB BECMG 2215/2216 12009KT 9999 BKN020 QNH3006INS BECMG 2218/2219 12012KT 8000 -SHRA BKN025 QNH3002INS TEMPO 2220/2223 12015G25KT 4800 -TSRA OVC020CB BECMG 2223/2224 VRB06KT 9999 NSW BKN020 QNH2999INS TX31/2219Z TN20/2212Z
KTPA 
9nm NW 
212058Z 2121/2224 09011KT P6SM VCSH SCT060 SCT250 FM220200 09007KT P6SM SCT020 BKN100 FM220600 09006KT P6SM BKN015 FM221500 14008KT P6SM SCT020 BKN100 FM221800 22008KT P6SM SCT030 BKN050
KPIE 
16nm W 
211730Z 2118/2218 12012G16KT P6SM SCT040 SCT250 FM212100 03011KT P6SM VCSH SCT040 SCT250 FM220200 10012KT P6SM SCT020 BKN100 FM220600 12012KT P6SM BKN015 FM221500 19009KT P6SM SCT030 BKN050
KLAL 
20nm E 
211730Z 2118/2218 12010KT P6SM VCSH BKN040 FM220000 08010KT P6SM SCT020 BKN035 FM220600 10005KT P6SM BKN015 FM221500 12011KT P6SM SCT025 BKN050
NOTAMs
Click for the latest NOTAMs
NOTAMs are issued by the DoD/FAA and will open in a separate window not controlled by AirNav.

 

 
 

Would you like to see your business listed on this page?

 If your business provides an interesting product or service to pilots, flight crews, aircraft, or users of the Star Aviation Heliport, you should consider listing it here.  To start the listing process, click on the button below
 
Add a business
 

Other Pages about Star Aviation Heliport

Update a link
 
Copyright © AirNav, LLC. All rights reserved. Privacy Policy  Contact